Terminal Aerodrome Forecast
Issued by NWS Amarillo, TX

Home | Current Version | Previous Version | Text Only | Print | Product List | Glossary On
Versions: 1 2 3 4 5 6 7 8 9 10 11 12 13 14 15 16
302
FTUS44 KAMA 290215 AAB
TAFAMA
TAF AMD
KAMA 290215Z 2902/2924 09017G27KT P6SM SCT020 OVC150
     FM290700 14016KT 6SM BR VCSH OVC010
      TEMPO 2907/2911 3SM TSRA OVC008CB
     FM291100 12018KT 5SM BR OVC008
     FM291800 24018KT P6SM SCT100=

USA.gov is the U.S. government's official web portal to all federal, state and local government web resources and services.